createdAt,value
2022-08-28T00:00:45.046Z,22.43
2022-08-28T00:02:48.159Z,22.46
2022-08-28T00:04:50.363Z,22.49
2022-08-28T00:06:52.138Z,22.48
2022-08-28T00:08:53.869Z,22.47
2022-08-28T00:10:55.729Z,22.51
2022-08-28T00:12:58.468Z,22.51
2022-08-28T00:15:00.153Z,22.51
2022-08-28T00:17:01.935Z,22.51
2022-08-28T00:19:04.836Z,22.51
2022-08-28T00:21:06.790Z,22.40
2022-08-28T00:23:08.843Z,22.31
2022-08-28T00:25:13.242Z,22.24
2022-08-28T00:27:33.764Z,22.22
2022-08-28T00:29:35.520Z,22.25
2022-08-28T00:31:40.339Z,22.26
2022-08-28T00:33:43.356Z,22.24
2022-08-28T00:35:45.509Z,22.21
2022-08-28T00:37:48.133Z,22.18
2022-08-28T00:39:49.949Z,22.18
2022-08-28T00:41:52.820Z,22.23
2022-08-28T00:44:21.696Z,22.28
2022-08-28T00:46:23.942Z,22.30
2022-08-28T00:48:25.668Z,22.31
2022-08-28T00:50:51.187Z,22.26
2022-08-28T00:52:57.112Z,22.24
2022-08-28T00:55:08.638Z,22.24
2022-08-28T00:57:16.118Z,22.24
2022-08-28T00:59:20.147Z,22.22
2022-08-28T01:01:21.927Z,22.20
2022-08-28T01:03:25.173Z,22.20
2022-08-28T01:05:29.472Z,22.20
2022-08-28T01:07:31.431Z,22.17
2022-08-28T01:09:34.753Z,22.18
2022-08-28T01:11:36.491Z,22.19
2022-08-28T01:13:40.453Z,22.19
2022-08-28T01:15:43.043Z,22.21
2022-08-28T01:17:49.233Z,22.19
2022-08-28T01:19:57.151Z,22.16
2022-08-28T01:22:07.891Z,22.06
2022-08-28T01:24:13.036Z,21.93
2022-08-28T01:26:14.825Z,21.30
2022-08-28T01:28:17.026Z,21.05
2022-08-28T01:30:21.599Z,20.96
2022-08-28T01:32:35.321Z,20.94
2022-08-28T01:34:37.298Z,21.01
2022-08-28T01:36:39.588Z,21.11
2022-08-28T01:38:42.736Z,21.19
2022-08-28T01:40:48.356Z,21.20
2022-08-28T01:42:50.350Z,21.21
2022-08-28T01:44:54.148Z,21.18
2022-08-28T01:46:57.576Z,21.24
2022-08-28T01:49:00.294Z,21.33
2022-08-28T01:51:04.170Z,21.38
2022-08-28T01:53:07.104Z,21.39
2022-08-28T01:55:14.304Z,21.41
2022-08-28T01:57:16.119Z,21.44
2022-08-28T01:59:19.402Z,21.45
2022-08-28T02:01:22.509Z,21.44
2022-08-28T02:03:24.324Z,21.46
2022-08-28T02:05:30.062Z,21.47
2022-08-28T02:07:31.728Z,21.48
2022-08-28T02:09:33.573Z,21.50
2022-08-28T02:11:35.360Z,21.52
2022-08-28T02:13:37.919Z,21.56
2022-08-28T02:15:41.516Z,21.57
2022-08-28T02:17:43.113Z,21.53
2022-08-28T02:19:45.064Z,21.44
2022-08-28T02:21:46.743Z,21.40
2022-08-28T02:23:48.541Z,21.37
2022-08-28T02:25:50.929Z,21.32
2022-08-28T02:27:52.715Z,21.28
2022-08-28T02:29:55.528Z,21.26
2022-08-28T02:31:57.304Z,21.22
2022-08-28T02:33:58.989Z,21.14
2022-08-28T02:36:00.663Z,21.00
2022-08-28T02:38:02.936Z,20.80
2022-08-28T02:40:05.054Z,20.73
2022-08-28T02:42:06.889Z,20.71
2022-08-28T02:44:08.637Z,20.66
2022-08-28T02:46:10.483Z,20.65
2022-08-28T02:48:16.658Z,20.67
2022-08-28T02:50:19.979Z,20.72
2022-08-28T02:52:22.553Z,20.81
2022-08-28T02:54:26.475Z,20.88
2022-08-28T02:56:29.122Z,20.97
2022-08-28T02:58:32.767Z,21.04
2022-08-28T03:00:34.458Z,21.06
2022-08-28T03:02:36.743Z,21.07
2022-08-28T03:04:38.518Z,21.06
2022-08-28T03:06:40.148Z,21.08
2022-08-28T03:08:42.868Z,21.10
2022-08-28T03:10:44.588Z,21.12
2022-08-28T03:12:48.224Z,21.17
2022-08-28T03:14:53.765Z,21.16
2022-08-28T03:16:55.454Z,21.13
2022-08-28T03:18:57.124Z,21.15
2022-08-28T03:20:59.780Z,21.15
2022-08-28T03:23:20.186Z,21.13
2022-08-28T03:25:22.486Z,21.11
2022-08-28T03:27:24.170Z,21.12
2022-08-28T03:29:25.845Z,21.10
2022-08-28T03:31:29.081Z,21.06
2022-08-28T03:33:31.042Z,21.04
2022-08-28T03:35:32.735Z,21.00
2022-08-28T03:37:34.498Z,21.01
2022-08-28T03:39:36.153Z,21.06
2022-08-28T03:41:37.810Z,21.05
2022-08-28T03:43:40.216Z,21.05
2022-08-28T03:45:52.296Z,21.06
2022-08-28T03:47:54.019Z,21.09
2022-08-28T03:49:59.845Z,21.08
2022-08-28T03:52:01.890Z,21.06
2022-08-28T03:54:04.180Z,20.97
2022-08-28T03:56:08.029Z,20.97
2022-08-28T03:58:09.733Z,20.96
2022-08-28T04:00:20.489Z,20.97
2022-08-28T04:02:22.217Z,21.01
2022-08-28T04:04:23.950Z,21.07
2022-08-28T04:06:25.917Z,21.11
2022-08-28T04:08:28.712Z,21.12
2022-08-28T04:10:32.142Z,21.14
2022-08-28T04:12:35.355Z,21.13
2022-08-28T04:14:37.484Z,21.14
2022-08-28T04:16:39.256Z,21.16
2022-08-28T04:18:42.384Z,21.15
2022-08-28T04:20:46.459Z,21.07
2022-08-28T04:22:49.119Z,20.97
2022-08-28T04:24:56.878Z,20.86
2022-08-28T04:26:58.514Z,20.86
2022-08-28T04:29:00.232Z,20.91
2022-08-28T04:31:02.609Z,20.99
2022-08-28T04:33:06.255Z,20.97
2022-08-28T04:35:09.768Z,21.03
2022-08-28T04:37:12.381Z,21.14
2022-08-28T04:39:14.189Z,21.22
2022-08-28T04:41:19.698Z,21.31
2022-08-28T04:43:21.437Z,21.36
2022-08-28T04:45:23.053Z,21.41
2022-08-28T04:47:24.752Z,21.46
2022-08-28T04:49:27.782Z,21.47
2022-08-28T04:51:29.569Z,21.53
2022-08-28T04:53:31.265Z,21.54
2022-08-28T04:55:50.803Z,21.57
2022-08-28T04:57:54.808Z,21.60
2022-08-28T04:59:57.033Z,21.65
2022-08-28T05:01:58.750Z,21.65
2022-08-28T05:04:02.533Z,21.49
2022-08-28T05:06:04.814Z,21.34
2022-08-28T05:08:06.514Z,21.33
2022-08-28T05:10:08.672Z,21.42
2022-08-28T05:12:16.093Z,21.45
2022-08-28T05:14:17.830Z,21.43
2022-08-28T05:16:20.968Z,21.40
2022-08-28T05:18:24.201Z,20.89
2022-08-28T05:20:26.231Z,20.33
2022-08-28T05:22:28.962Z,19.94
2022-08-28T05:24:30.650Z,19.99
2022-08-28T05:26:33.749Z,20.10
2022-08-28T05:28:36.581Z,20.09
2022-08-28T05:30:40.213Z,20.26
2022-08-28T05:32:42.213Z,20.35
2022-08-28T05:34:43.861Z,20.49
2022-08-28T05:36:45.541Z,20.45
2022-08-28T05:38:48.213Z,20.59
2022-08-28T05:40:49.838Z,20.82
2022-08-28T05:42:52.264Z,21.04
2022-08-28T05:44:54.694Z,21.25
2022-08-28T05:46:56.692Z,21.45
2022-08-28T05:49:00.247Z,21.64
2022-08-28T05:51:14.579Z,21.81
2022-08-28T05:53:18.099Z,21.92
2022-08-28T05:55:19.616Z,22.06
2022-08-28T05:57:21.258Z,22.20
2022-08-28T05:59:23.044Z,22.33
2022-08-28T06:01:28.575Z,22.46
2022-08-28T06:03:30.477Z,22.60
2022-08-28T06:05:32.084Z,22.67
2022-08-28T06:07:34.050Z,22.76
2022-08-28T06:09:35.805Z,22.83
2022-08-28T06:11:39.035Z,22.94
2022-08-28T06:13:46.352Z,23.03
2022-08-28T06:15:48.492Z,23.12
2022-08-28T06:17:50.122Z,23.22
2022-08-28T06:19:51.756Z,23.29
2022-08-28T06:21:59.010Z,23.38
2022-08-28T06:24:00.668Z,23.45
2022-08-28T06:26:02.949Z,23.51
2022-08-28T06:28:05.686Z,23.17
2022-08-28T06:30:08.975Z,23.02
2022-08-28T06:32:10.706Z,22.93
2022-08-28T06:34:12.978Z,22.97
2022-08-28T06:36:14.691Z,23.05
2022-08-28T06:38:17.703Z,23.17
2022-08-28T06:40:19.528Z,23.36
2022-08-28T06:42:21.553Z,23.57
2022-08-28T06:44:23.877Z,23.76
2022-08-28T06:46:26.778Z,23.82
2022-08-28T06:48:28.859Z,23.85
2022-08-28T06:50:30.548Z,23.89
2022-08-28T06:52:32.275Z,23.98
2022-08-28T06:54:34.347Z,24.06
2022-08-28T06:56:36.282Z,24.12
2022-08-28T06:58:50.215Z,24.27
2022-08-28T07:01:03.086Z,24.38
2022-08-28T07:03:06.048Z,24.51
2022-08-28T07:05:08.870Z,24.58
2022-08-28T07:07:11.312Z,24.65
2022-08-28T07:09:33.002Z,24.71
2022-08-28T07:11:35.812Z,24.77
2022-08-28T07:13:37.464Z,24.87
2022-08-28T07:15:41.899Z,24.96
2022-08-28T07:17:44.751Z,25.08
2022-08-28T07:19:46.554Z,25.20
2022-08-28T07:21:48.284Z,25.27
2022-08-28T07:23:50.182Z,25.25
2022-08-28T07:25:52.058Z,25.36
2022-08-28T07:27:53.754Z,25.44
2022-08-28T07:29:55.408Z,25.53
2022-08-28T07:31:59.155Z,25.48
2022-08-28T07:34:00.973Z,25.31
2022-08-28T07:36:03.495Z,25.44
2022-08-28T07:38:05.325Z,25.60
2022-08-28T07:40:08.643Z,25.70
2022-08-28T07:42:35.660Z,25.69
2022-08-28T07:44:49.807Z,25.20
2022-08-28T07:47:00.363Z,25.08
2022-08-28T07:49:02.391Z,25.13
2022-08-28T07:51:05.263Z,25.10
2022-08-28T07:53:07.089Z,25.24
2022-08-28T07:55:08.864Z,25.25
2022-08-28T07:57:10.540Z,25.12
2022-08-28T07:59:16.636Z,25.28
2022-08-28T08:01:19.793Z,25.54
2022-08-28T08:03:22.680Z,25.82
2022-08-28T08:05:25.781Z,26.03
2022-08-28T08:07:28.470Z,26.22
2022-08-28T08:09:30.261Z,26.28
2022-08-28T08:11:32.769Z,26.15
2022-08-28T08:13:35.232Z,26.21
2022-08-28T08:15:37.251Z,26.33
2022-08-28T08:17:39.298Z,26.37
2022-08-28T08:19:41.077Z,26.49
2022-08-28T08:21:46.716Z,26.52
2022-08-28T08:23:49.224Z,26.61
2022-08-28T08:26:00.394Z,26.77
2022-08-28T08:28:04.064Z,26.63
2022-08-28T08:30:06.148Z,26.48
2022-08-28T08:32:10.078Z,26.44
2022-08-28T08:34:12.012Z,26.50
2022-08-28T08:36:15.352Z,26.65
2022-08-28T08:38:16.989Z,26.86
2022-08-28T08:40:20.673Z,26.96
2022-08-28T08:42:28.896Z,27.07
2022-08-28T08:44:38.821Z,27.14
2022-08-28T08:46:46.348Z,27.25
2022-08-28T08:48:48.133Z,27.22
2022-08-28T08:50:49.882Z,27.17
2022-08-28T08:53:24.634Z,27.28
2022-08-28T08:55:38.541Z,27.39
2022-08-28T08:57:40.582Z,27.35
2022-08-28T08:59:42.474Z,27.31
2022-08-28T09:01:55.342Z,27.13
2022-08-28T09:04:39.860Z,27.16
2022-08-28T09:06:51.426Z,27.48
2022-08-28T09:08:58.141Z,27.66
2022-08-28T09:11:12.494Z,27.83
2022-08-28T09:13:55.227Z,28.04
2022-08-28T09:15:57.046Z,28.17
2022-08-28T09:18:14.391Z,28.38
2022-08-28T09:20:29.119Z,28.50
2022-08-28T09:22:35.773Z,28.65
2022-08-28T09:24:41.194Z,28.77
2022-08-28T09:26:43.262Z,28.89
2022-08-28T09:28:50.750Z,28.97
2022-08-28T09:31:04.438Z,28.84
2022-08-28T09:33:06.152Z,28.73
2022-08-28T09:35:29.098Z,28.64
2022-08-28T09:37:33.645Z,28.83
2022-08-28T09:39:38.277Z,28.75
2022-08-28T09:42:06.811Z,28.85
2022-08-28T09:44:14.928Z,29.10
2022-08-28T09:46:20.896Z,29.03
2022-08-28T09:48:24.878Z,29.23
2022-08-28T09:50:26.586Z,29.39
2022-08-28T09:52:28.264Z,29.38
2022-08-28T09:54:39.988Z,29.44
2022-08-28T09:56:42.328Z,29.55
2022-08-28T09:58:45.036Z,29.67
2022-08-28T10:00:55.354Z,29.81
2022-08-28T10:03:10.596Z,29.63
2022-08-28T10:05:19.092Z,29.29
2022-08-28T10:07:47.904Z,29.25
2022-08-28T10:09:52.338Z,29.43
2022-08-28T10:11:59.478Z,29.55
2022-08-28T10:14:10.661Z,29.67
2022-08-28T10:16:42.674Z,29.56
2022-08-28T10:18:56.505Z,29.65
2022-08-28T10:21:04.275Z,29.73
2022-08-28T10:23:33.889Z,29.71
2022-08-28T10:25:56.651Z,29.49
2022-08-28T10:28:19.913Z,29.65
2022-08-28T10:30:23.768Z,29.82
2022-08-28T10:33:00.047Z,29.91
2022-08-28T10:35:20.194Z,29.55
2022-08-28T10:37:37.610Z,29.54
2022-08-28T10:39:48.070Z,29.84
2022-08-28T10:41:55.812Z,30.10
2022-08-28T10:44:00.985Z,30.02
2022-08-28T10:46:12.453Z,29.97
2022-08-28T10:48:25.127Z,29.85
2022-08-28T10:50:42.580Z,29.94
2022-08-28T10:52:57.543Z,30.12
2022-08-28T10:55:05.611Z,30.27
2022-08-28T10:57:39.791Z,30.16
2022-08-28T10:59:42.488Z,30.33
2022-08-28T11:01:46.575Z,30.34
2022-08-28T11:03:49.961Z,30.37
2022-08-28T11:05:55.324Z,30.51
2022-08-28T11:07:59.714Z,30.44
2022-08-28T11:10:24.748Z,30.51
2022-08-28T11:12:29.419Z,30.61
2022-08-28T11:14:35.460Z,30.74
2022-08-28T11:16:44.571Z,30.88
2022-08-28T11:19:15.550Z,30.89
2022-08-28T11:21:30.456Z,30.36
2022-08-28T11:23:48.432Z,30.30
2022-08-28T11:25:58.833Z,30.52
2022-08-28T11:28:17.919Z,30.77
2022-08-28T11:30:32.714Z,30.92
2022-08-28T11:32:34.456Z,31.08
2022-08-28T11:34:59.257Z,31.22
2022-08-28T11:37:02.594Z,31.36
2022-08-28T11:39:13.301Z,31.39
2022-08-28T11:41:26.968Z,31.42
2022-08-28T11:43:28.594Z,31.50
2022-08-28T11:45:56.318Z,31.54
2022-08-28T11:48:16.451Z,31.59
2022-08-28T11:50:22.084Z,31.55
2022-08-28T11:52:23.647Z,31.61
2022-08-28T11:54:46.068Z,31.55
2022-08-28T11:57:07.155Z,31.47
2022-08-28T11:59:43.762Z,31.27
2022-08-28T12:01:45.629Z,31.26
2022-08-28T12:04:08.641Z,31.01
2022-08-28T12:06:12.055Z,30.96
2022-08-28T12:08:46.616Z,30.47
2022-08-28T12:10:48.426Z,30.65
2022-08-28T12:13:07.734Z,30.81
2022-08-28T12:15:11.332Z,30.75
2022-08-28T12:17:22.160Z,30.51
2022-08-28T12:19:40.235Z,30.73
2022-08-28T12:21:51.650Z,30.75
2022-08-28T12:24:09.853Z,30.96
2022-08-28T12:26:42.873Z,30.73
2022-08-28T12:28:56.912Z,30.70
2022-08-28T12:31:07.353Z,30.50
2022-08-28T12:33:21.893Z,30.18
2022-08-28T12:35:28.032Z,30.10
2022-08-28T12:37:39.698Z,30.28
2022-08-28T12:39:54.945Z,30.57
2022-08-28T12:41:57.497Z,30.71
2022-08-28T12:44:00.064Z,30.68
2022-08-28T12:46:07.178Z,30.73
2022-08-28T12:48:31.841Z,30.68
2022-08-28T12:50:36.791Z,30.89
2022-08-28T12:52:48.160Z,31.10
2022-08-28T12:54:51.592Z,31.00
2022-08-28T12:56:53.273Z,30.83
2022-08-28T12:58:54.873Z,30.93
2022-08-28T13:01:02.965Z,31.09
2022-08-28T13:03:07.585Z,31.25
2022-08-28T13:05:48.665Z,31.43
2022-08-28T13:07:55.169Z,31.53
2022-08-28T13:10:00.221Z,31.48
2022-08-28T13:12:02.979Z,31.29
2022-08-28T13:14:06.005Z,31.03
2022-08-28T13:16:12.695Z,30.99
2022-08-28T13:18:49.966Z,30.97
2022-08-28T13:20:51.930Z,31.03
2022-08-28T13:22:53.907Z,31.06
2022-08-28T13:25:03.364Z,31.18
2022-08-28T13:27:17.355Z,31.36
2022-08-28T13:29:24.067Z,31.41
2022-08-28T13:31:30.617Z,31.49
2022-08-28T13:33:32.843Z,31.61
2022-08-28T13:35:40.177Z,31.75
2022-08-28T13:37:53.638Z,31.84
2022-08-28T13:39:55.220Z,31.91
2022-08-28T13:42:00.165Z,32.01
2022-08-28T13:44:01.982Z,32.13
2022-08-28T13:46:03.621Z,32.23
2022-08-28T13:48:05.870Z,32.34
2022-08-28T13:50:08.417Z,32.40
2022-08-28T13:52:10.912Z,32.41
2022-08-28T13:54:13.024Z,32.48
2022-08-28T13:56:15.609Z,32.48
2022-08-28T13:58:17.773Z,32.46
2022-08-28T14:00:19.552Z,32.49
2022-08-28T14:02:40.550Z,32.54
2022-08-28T14:04:42.289Z,32.55
2022-08-28T14:06:44.496Z,32.60
2022-08-28T14:08:46.819Z,32.63
2022-08-28T14:10:48.881Z,32.63
2022-08-28T14:12:50.569Z,32.67
2022-08-28T14:14:52.781Z,32.66
2022-08-28T14:16:55.816Z,32.73
2022-08-28T14:18:59.493Z,32.79
2022-08-28T14:21:01.237Z,32.86
2022-08-28T14:23:02.985Z,32.91
2022-08-28T14:25:05.265Z,32.96
2022-08-28T14:27:07.245Z,33.05
2022-08-28T14:29:10.557Z,33.00
2022-08-28T14:31:14.592Z,32.96
2022-08-28T14:33:20.666Z,33.02
2022-08-28T14:35:22.641Z,33.05
2022-08-28T14:37:24.369Z,33.09
2022-08-28T14:39:27.527Z,33.11
2022-08-28T14:41:29.417Z,33.12
2022-08-28T14:43:31.656Z,33.16
2022-08-28T14:45:34.036Z,33.20
2022-08-28T14:47:36.253Z,33.25
2022-08-28T14:49:39.369Z,33.31
2022-08-28T14:51:42.960Z,33.33
2022-08-28T14:53:44.938Z,33.37
2022-08-28T14:55:48.965Z,33.34
2022-08-28T14:57:51.240Z,33.35
2022-08-28T14:59:53.122Z,33.39
2022-08-28T15:01:58.133Z,33.44
2022-08-28T15:04:00.063Z,33.46
2022-08-28T15:06:01.847Z,33.52
2022-08-28T15:08:07.338Z,33.56
2022-08-28T15:10:13.316Z,33.62
2022-08-28T15:12:16.618Z,33.66
2022-08-28T15:14:18.486Z,33.65
2022-08-28T15:16:30.179Z,33.62
2022-08-28T15:18:32.358Z,33.56
2022-08-28T15:20:39.001Z,33.56
2022-08-28T15:22:40.668Z,33.60
2022-08-28T15:24:42.501Z,33.59
2022-08-28T15:26:44.993Z,33.43
2022-08-28T15:28:46.709Z,32.70
2022-08-28T15:30:48.463Z,32.28
2022-08-28T15:32:50.107Z,32.28
2022-08-28T15:34:52.652Z,32.36
2022-08-28T15:36:55.946Z,32.41
2022-08-28T15:39:16.570Z,32.18
2022-08-28T15:41:24.370Z,32.12
2022-08-28T15:43:26.022Z,32.16
2022-08-28T15:45:27.711Z,32.21
2022-08-28T15:47:30.770Z,32.08
2022-08-28T15:49:36.143Z,32.19
2022-08-28T15:51:48.342Z,32.31
2022-08-28T15:53:50.093Z,32.40
2022-08-28T15:55:51.808Z,32.44
2022-08-28T15:57:55.175Z,32.26
2022-08-28T15:59:57.060Z,31.86
2022-08-28T16:01:58.842Z,31.65
2022-08-28T16:04:00.565Z,31.60
2022-08-28T16:06:02.549Z,31.51
2022-08-28T16:08:04.531Z,31.59
2022-08-28T16:10:10.197Z,31.59
2022-08-28T16:12:12.143Z,31.64
2022-08-28T16:14:16.812Z,31.66
2022-08-28T16:16:21.443Z,31.65
2022-08-28T16:18:23.376Z,31.55
2022-08-28T16:20:25.344Z,31.49
2022-08-28T16:22:27.068Z,31.42
2022-08-28T16:24:29.587Z,31.38
2022-08-28T16:26:31.351Z,31.35
2022-08-28T16:28:33.972Z,31.26
2022-08-28T16:30:37.683Z,31.12
2022-08-28T16:32:46.773Z,30.95
2022-08-28T16:34:49.606Z,30.81
2022-08-28T16:36:51.459Z,30.71
2022-08-28T16:38:59.721Z,30.54
2022-08-28T16:41:11.026Z,30.44
2022-08-28T16:43:13.613Z,30.38
2022-08-28T16:45:15.871Z,30.31
2022-08-28T16:47:17.553Z,30.26
2022-08-28T16:49:19.353Z,30.16
2022-08-28T16:51:21.578Z,30.08
2022-08-28T16:53:24.408Z,29.95
2022-08-28T16:55:29.275Z,29.87
2022-08-28T16:57:31.004Z,29.83
2022-08-28T16:59:32.660Z,29.76
2022-08-28T17:01:34.458Z,29.69
2022-08-28T17:03:38.163Z,29.55
2022-08-28T17:05:40.358Z,29.40
2022-08-28T17:07:44.189Z,29.23
2022-08-28T17:09:46.045Z,29.03
2022-08-28T17:11:52.148Z,28.88
2022-08-28T17:13:55.569Z,28.78
2022-08-28T17:15:57.292Z,28.70
2022-08-28T17:18:00.186Z,28.65
2022-08-28T17:20:02.585Z,28.51
2022-08-28T17:22:27.273Z,28.45
2022-08-28T17:24:30.167Z,28.43
2022-08-28T17:26:31.921Z,28.37
2022-08-28T17:28:33.595Z,28.35
2022-08-28T17:30:35.557Z,28.34
2022-08-28T17:32:37.331Z,28.31
2022-08-28T17:34:39.255Z,28.29
2022-08-28T17:36:42.430Z,28.25
2022-08-28T17:38:45.063Z,28.26
2022-08-28T17:40:46.791Z,28.20
2022-08-28T17:42:48.980Z,28.14
2022-08-28T17:44:51.133Z,28.08
2022-08-28T17:46:53.009Z,28.06
2022-08-28T17:48:55.600Z,28.05
2022-08-28T17:50:58.067Z,27.97
2022-08-28T17:52:59.728Z,27.94
2022-08-28T17:55:01.861Z,27.90
2022-08-28T17:57:03.533Z,27.83
2022-08-28T17:59:05.610Z,27.79
2022-08-28T18:01:07.782Z,27.76
2022-08-28T18:03:09.609Z,27.74
2022-08-28T18:05:12.288Z,27.74
2022-08-28T18:07:14.212Z,27.72
2022-08-28T18:09:15.911Z,27.69
2022-08-28T18:11:18.674Z,27.63
2022-08-28T18:13:20.612Z,27.60
2022-08-28T18:15:24.037Z,27.56
2022-08-28T18:17:25.821Z,27.54
2022-08-28T18:19:28.474Z,27.52
2022-08-28T18:21:30.967Z,27.51
2022-08-28T18:23:32.820Z,27.52
2022-08-28T18:25:50.985Z,27.53
2022-08-28T18:27:53.043Z,27.51
2022-08-28T18:29:54.964Z,27.48
2022-08-28T18:31:57.404Z,27.45
2022-08-28T18:33:59.317Z,27.44
2022-08-28T18:36:01.364Z,27.42
2022-08-28T18:38:06.087Z,27.40
2022-08-28T18:40:08.681Z,27.39
2022-08-28T18:42:10.794Z,27.38
2022-08-28T18:44:15.479Z,27.36
2022-08-28T18:46:17.671Z,27.33
2022-08-28T18:48:19.833Z,27.26
2022-08-28T18:50:22.193Z,27.25
2022-08-28T18:52:24.063Z,27.15
2022-08-28T18:54:25.989Z,27.01
2022-08-28T18:56:32.024Z,26.95
2022-08-28T18:58:34.560Z,26.90
2022-08-28T19:00:37.791Z,26.91
2022-08-28T19:02:41.764Z,26.90
2022-08-28T19:04:44.688Z,26.88
2022-08-28T19:06:46.491Z,26.90
2022-08-28T19:08:48.553Z,26.90
2022-08-28T19:10:50.230Z,26.90
2022-08-28T19:12:51.870Z,26.87
2022-08-28T19:14:57.735Z,26.83
2022-08-28T19:17:00.180Z,26.77
2022-08-28T19:19:03.507Z,26.73
2022-08-28T19:21:12.158Z,26.71
2022-08-28T19:23:18.447Z,26.67
2022-08-28T19:25:28.170Z,26.60
2022-08-28T19:27:30.883Z,26.53
2022-08-28T19:29:32.614Z,26.50
2022-08-28T19:31:34.308Z,26.45
2022-08-28T19:33:36.196Z,26.40
2022-08-28T19:35:38.474Z,26.38
2022-08-28T19:37:42.672Z,26.35
2022-08-28T19:39:44.482Z,26.36
2022-08-28T19:41:57.699Z,26.37
2022-08-28T19:44:00.134Z,26.40
2022-08-28T19:46:01.859Z,26.42
2022-08-28T19:48:03.763Z,26.42
2022-08-28T19:50:08.632Z,26.41
2022-08-28T19:52:10.594Z,26.40
2022-08-28T19:54:14.383Z,26.38
2022-08-28T19:56:16.612Z,26.35
2022-08-28T19:58:18.383Z,26.34
2022-08-28T20:00:30.095Z,26.37
2022-08-28T20:02:31.818Z,26.34
2022-08-28T20:04:33.523Z,26.35
2022-08-28T20:06:36.102Z,26.35
2022-08-28T20:08:37.813Z,26.32
2022-08-28T20:10:39.625Z,26.30
2022-08-28T20:12:48.545Z,26.24
2022-08-28T20:14:50.867Z,26.21
2022-08-28T20:16:52.771Z,26.15
2022-08-28T20:18:55.753Z,26.14
2022-08-28T20:20:57.465Z,26.15
2022-08-28T20:22:59.122Z,26.13
2022-08-28T20:25:00.869Z,26.13
2022-08-28T20:27:02.581Z,26.12
2022-08-28T20:29:06.108Z,26.12
2022-08-28T20:31:16.738Z,26.13
2022-08-28T20:33:18.701Z,26.12
2022-08-28T20:35:22.166Z,26.10
2022-08-28T20:37:26.317Z,26.09
2022-08-28T20:39:28.462Z,26.08
2022-08-28T20:41:30.166Z,26.07
2022-08-28T20:43:32.054Z,26.07
2022-08-28T20:45:33.846Z,26.06
2022-08-28T20:47:35.552Z,26.02
2022-08-28T20:49:38.979Z,26.00
2022-08-28T20:52:00.915Z,26.01
2022-08-28T20:54:02.662Z,26.00
2022-08-28T20:56:08.249Z,25.97
2022-08-28T20:58:10.030Z,25.92
2022-08-28T21:00:12.636Z,25.90
2022-08-28T21:02:34.076Z,25.85
2022-08-28T21:04:37.034Z,25.79
2022-08-28T21:06:40.445Z,25.75
2022-08-28T21:08:43.206Z,25.73
2022-08-28T21:10:46.120Z,25.71
2022-08-28T21:12:47.830Z,25.73
2022-08-28T21:14:51.351Z,25.74
2022-08-28T21:16:53.537Z,25.73
2022-08-28T21:19:14.713Z,25.72
2022-08-28T21:21:17.135Z,25.71
2022-08-28T21:23:20.691Z,25.69
2022-08-28T21:25:24.621Z,25.67
2022-08-28T21:27:26.910Z,25.66
2022-08-28T21:29:28.682Z,25.59
2022-08-28T21:31:30.339Z,25.57
2022-08-28T21:33:31.954Z,25.54
2022-08-28T21:35:35.685Z,25.51
2022-08-28T21:37:38.122Z,25.52
2022-08-28T21:39:39.771Z,25.51
2022-08-28T21:41:42.215Z,25.49
2022-08-28T21:43:45.684Z,25.47
2022-08-28T21:45:56.738Z,25.47
2022-08-28T21:47:58.799Z,25.44
2022-08-28T21:50:00.596Z,25.38
2022-08-28T21:52:03.094Z,25.36
2022-08-28T21:54:05.766Z,25.37
2022-08-28T21:56:08.048Z,25.36
2022-08-28T21:58:09.702Z,25.35
2022-08-28T22:00:20.006Z,25.34
2022-08-28T22:02:22.481Z,25.33
2022-08-28T22:04:24.174Z,25.30
2022-08-28T22:06:26.553Z,25.29
2022-08-28T22:08:28.625Z,25.27
2022-08-28T22:10:30.417Z,25.29
2022-08-28T22:12:32.954Z,25.28
2022-08-28T22:14:35.518Z,25.25
2022-08-28T22:16:37.432Z,25.22
2022-08-28T22:18:39.382Z,25.22
2022-08-28T22:21:02.044Z,25.19
2022-08-28T22:23:09.739Z,25.16
2022-08-28T22:25:11.524Z,25.12
2022-08-28T22:27:13.917Z,25.09
2022-08-28T22:29:15.684Z,25.00
2022-08-28T22:31:17.433Z,25.00
2022-08-28T22:33:19.691Z,24.98
2022-08-28T22:35:21.469Z,25.00
2022-08-28T22:37:23.408Z,25.02
2022-08-28T22:39:25.049Z,25.03
2022-08-28T22:41:26.895Z,25.03
2022-08-28T22:43:28.593Z,25.02
2022-08-28T22:45:31.238Z,25.01
2022-08-28T22:47:33.018Z,25.00
2022-08-28T22:49:39.251Z,24.96
2022-08-28T22:51:41.499Z,24.86
2022-08-28T22:53:43.793Z,24.79
2022-08-28T22:55:45.432Z,24.69
2022-08-28T22:57:47.824Z,24.51
2022-08-28T22:59:50.025Z,24.39
2022-08-28T23:01:51.677Z,24.30
2022-08-28T23:03:53.608Z,24.32
2022-08-28T23:05:55.264Z,24.36
2022-08-28T23:07:57.515Z,24.37
2022-08-28T23:09:59.189Z,24.40
2022-08-28T23:12:01.559Z,24.40
2022-08-28T23:14:04.894Z,24.41
2022-08-28T23:16:07.127Z,24.42
2022-08-28T23:18:08.990Z,24.43
2022-08-28T23:20:14.061Z,24.45
2022-08-28T23:22:15.922Z,24.43
2022-08-28T23:24:17.821Z,24.44
2022-08-28T23:26:19.895Z,24.43
2022-08-28T23:28:21.684Z,24.42
2022-08-28T23:30:24.240Z,24.40
2022-08-28T23:32:26.443Z,24.37
2022-08-28T23:34:28.089Z,24.31
2022-08-28T23:36:29.824Z,24.26
2022-08-28T23:38:31.538Z,24.24
2022-08-28T23:40:34.013Z,24.21
2022-08-28T23:42:36.648Z,24.21
2022-08-28T23:44:38.519Z,24.16
2022-08-28T23:46:41.244Z,24.14
2022-08-28T23:48:44.058Z,24.09
2022-08-28T23:50:47.003Z,24.03
2022-08-28T23:52:49.193Z,23.99
2022-08-28T23:54:52.255Z,23.94
2022-08-28T23:56:53.939Z,23.90
2022-08-28T23:58:55.850Z,23.87
